sensor_id;sensor_type;location;lat;lon;timestamp;pressure;altitude;pressure_sealevel;temperature;humidity
32330;BME280;18807;52.434;13.238;2022-12-19T00:02:40;102513.81;;;-4.99;100.00
32330;BME280;18807;52.434;13.238;2022-12-19T00:10:19;102503.84;;;-4.94;100.00
32330;BME280;18807;52.434;13.238;2022-12-19T00:17:53;102505.88;;;-4.83;100.00
32330;BME280;18807;52.434;13.238;2022-12-19T00:25:28;102486.44;;;-4.78;100.00
32330;BME280;18807;52.434;13.238;2022-12-19T00:33:03;102487.78;;;-4.73;100.00
32330;BME280;18807;52.434;13.238;2022-12-19T00:40:38;102466.69;;;-4.68;100.00
32330;BME280;18807;52.434;13.238;2022-12-19T00:48:12;102459.19;;;-4.65;100.00
32330;BME280;18807;52.434;13.238;2022-12-19T00:55:50;102455.94;;;-4.62;100.00
32330;BME280;18807;52.434;13.238;2022-12-19T01:03:24;102440.63;;;-4.59;100.00
32330;BME280;18807;52.434;13.238;2022-12-19T01:11:00;102414.88;;;-4.56;100.00
32330;BME280;18807;52.434;13.238;2022-12-19T01:18:34;102413.97;;;-4.48;100.00
32330;BME280;18807;52.434;13.238;2022-12-19T01:26:10;102393.88;;;-4.41;100.00
32330;BME280;18807;52.434;13.238;2022-12-19T01:33:43;102385.72;;;-4.35;100.00
32330;BME280;18807;52.434;13.238;2022-12-19T01:41:19;102364.41;;;-4.31;100.00
32330;BME280;18807;52.434;13.238;2022-12-19T01:48:53;102364.38;;;-4.23;100.00
32330;BME280;18807;52.434;13.238;2022-12-19T01:56:32;102341.84;;;-4.22;100.00
32330;BME280;18807;52.434;13.238;2022-12-19T02:04:07;102327.13;;;-4.22;100.00
32330;BME280;18807;52.434;13.238;2022-12-19T02:11:44;102326.94;;;-4.15;100.00
32330;BME280;18807;52.434;13.238;2022-12-19T02:27:37;102314.81;;;-4.14;100.00
32330;BME280;18807;52.434;13.238;2022-12-19T02:35:22;102299.47;;;-4.20;100.00
32330;BME280;18807;52.434;13.238;2022-12-19T02:42:59;102297.94;;;-4.18;100.00
32330;BME280;18807;52.434;13.238;2022-12-19T02:50:41;102292.09;;;-4.15;100.00
32330;BME280;18807;52.434;13.238;2022-12-19T02:58:47;102293.03;;;-4.15;100.00
32330;BME280;18807;52.434;13.238;2022-12-19T03:06:30;102286.59;;;-4.09;100.00
32330;BME280;18807;52.434;13.238;2022-12-19T03:14:09;102280.09;;;-4.04;100.00
32330;BME280;18807;52.434;13.238;2022-12-19T03:21:47;102279.00;;;-3.98;100.00
32330;BME280;18807;52.434;13.238;2022-12-19T03:29:27;102266.41;;;-3.93;100.00
32330;BME280;18807;52.434;13.238;2022-12-19T03:37:09;102255.19;;;-3.92;100.00
32330;BME280;18807;52.434;13.238;2022-12-19T03:44:46;102261.63;;;-3.89;100.00
32330;BME280;18807;52.434;13.238;2022-12-19T03:52:29;102253.66;;;-3.90;100.00
32330;BME280;18807;52.434;13.238;2022-12-19T04:00:11;102238.00;;;-3.90;100.00
32330;BME280;18807;52.434;13.238;2022-12-19T04:07:48;102239.53;;;-3.92;100.00
32330;BME280;18807;52.434;13.238;2022-12-19T04:15:30;102245.69;;;-3.92;100.00
32330;BME280;18807;52.434;13.238;2022-12-19T04:23:12;102242.28;;;-3.91;100.00
32330;BME280;18807;52.434;13.238;2022-12-19T04:30:49;102252.44;;;-3.94;100.00
32330;BME280;18807;52.434;13.238;2022-12-19T04:38:25;102240.75;;;-3.89;100.00
32330;BME280;18807;52.434;13.238;2022-12-19T04:45:59;102236.88;;;-3.84;100.00
32330;BME280;18807;52.434;13.238;2022-12-19T04:53:34;102229.75;;;-3.76;100.00
32330;BME280;18807;52.434;13.238;2022-12-19T05:01:08;102216.88;;;-3.75;100.00
32330;BME280;18807;52.434;13.238;2022-12-19T05:08:44;102223.44;;;-3.70;100.00
32330;BME280;18807;52.434;13.238;2022-12-19T05:16:18;102215.91;;;-3.67;100.00
32330;BME280;18807;52.434;13.238;2022-12-19T05:23:53;102219.38;;;-3.58;100.00
32330;BME280;18807;52.434;13.238;2022-12-19T05:31:27;102201.69;;;-3.52;100.00
32330;BME280;18807;52.434;13.238;2022-12-19T05:39:03;102205.59;;;-3.47;100.00
32330;BME280;18807;52.434;13.238;2022-12-19T05:46:36;102192.22;;;-3.41;100.00
32330;BME280;18807;52.434;13.238;2022-12-19T05:54:12;102181.28;;;-3.37;100.00
32330;BME280;18807;52.434;13.238;2022-12-19T06:01:46;102172.94;;;-3.33;100.00
32330;BME280;18807;52.434;13.238;2022-12-19T06:09:22;102168.28;;;-3.27;100.00
32330;BME280;18807;52.434;13.238;2022-12-19T06:16:56;102136.97;;;-3.17;100.00
32330;BME280;18807;52.434;13.238;2022-12-19T06:24:32;102132.97;;;-3.14;100.00
32330;BME280;18807;52.434;13.238;2022-12-19T06:32:05;102119.53;;;-3.08;100.00
32330;BME280;18807;52.434;13.238;2022-12-19T06:39:41;102134.72;;;-3.04;100.00
32330;BME280;18807;52.434;13.238;2022-12-19T06:47:15;102117.75;;;-2.99;100.00
32330;BME280;18807;52.434;13.238;2022-12-19T06:54:51;102133.09;;;-2.94;100.00
32330;BME280;18807;52.434;13.238;2022-12-19T07:02:27;102141.56;;;-2.86;100.00
32330;BME280;18807;52.434;13.238;2022-12-19T07:10:05;102151.03;;;-2.78;100.00
32330;BME280;18807;52.434;13.238;2022-12-19T07:17:40;102141.91;;;-2.73;100.00
32330;BME280;18807;52.434;13.238;2022-12-19T07:25:16;102132.56;;;-2.61;100.00
32330;BME280;18807;52.434;13.238;2022-12-19T07:32:50;102126.94;;;-2.56;100.00
32330;BME280;18807;52.434;13.238;2022-12-19T07:40:25;102132.97;;;-2.47;100.00
32330;BME280;18807;52.434;13.238;2022-12-19T07:47:59;102126.56;;;-2.40;100.00
32330;BME280;18807;52.434;13.238;2022-12-19T07:55:35;102115.75;;;-2.35;100.00
32330;BME280;18807;52.434;13.238;2022-12-19T08:03:09;102111.31;;;-2.26;100.00
32330;BME280;18807;52.434;13.238;2022-12-19T08:10:44;102107.63;;;-2.18;100.00
32330;BME280;18807;52.434;13.238;2022-12-19T08:18:19;102086.69;;;-2.08;100.00
32330;BME280;18807;52.434;13.238;2022-12-19T08:26:03;102084.88;;;-1.98;100.00
32330;BME280;18807;52.434;13.238;2022-12-19T08:33:38;102095.50;;;-1.87;99.77
32330;BME280;18807;52.434;13.238;2022-12-19T08:41:13;102095.47;;;-1.77;99.26
32330;BME280;18807;52.434;13.238;2022-12-19T08:48:47;102074.63;;;-1.65;98.53
32330;BME280;18807;52.434;13.238;2022-12-19T08:56:23;102056.41;;;-1.54;97.40
32330;BME280;18807;52.434;13.238;2022-12-19T09:03:57;102039.63;;;-1.46;97.02
32330;BME280;18807;52.434;13.238;2022-12-19T09:11:52;102026.63;;;-1.34;96.06
32330;BME280;18807;52.434;13.238;2022-12-19T09:19:26;102017.38;;;-1.19;95.31
32330;BME280;18807;52.434;13.238;2022-12-19T09:27:02;102020.00;;;-0.98;93.50
32330;BME280;18807;52.434;13.238;2022-12-19T09:34:35;102001.31;;;-0.81;92.59
32330;BME280;18807;52.434;13.238;2022-12-19T09:42:23;101981.94;;;-0.71;92.24
32330;BME280;18807;52.434;13.238;2022-12-19T09:50:22;101969.75;;;-0.49;90.43
32330;BME280;18807;52.434;13.238;2022-12-19T09:58:04;101947.75;;;-0.28;88.08
32330;BME280;18807;52.434;13.238;2022-12-19T10:05:42;101938.53;;;-0.12;87.38
32330;BME280;18807;52.434;13.238;2022-12-19T10:13:54;101942.44;;;0.05;86.80
32330;BME280;18807;52.434;13.238;2022-12-19T10:21:36;101925.31;;;0.22;85.55
32330;BME280;18807;52.434;13.238;2022-12-19T10:29:45;101912.50;;;0.38;84.89
32330;BME280;18807;52.434;13.238;2022-12-19T10:37:25;101899.78;;;0.55;83.22
32330;BME280;18807;52.434;13.238;2022-12-19T10:45:18;101876.00;;;0.65;83.08
32330;BME280;18807;52.434;13.238;2022-12-19T10:52:54;101867.38;;;0.79;82.16
32330;BME280;18807;52.434;13.238;2022-12-19T11:00:30;101847.31;;;0.93;81.89
32330;BME280;18807;52.434;13.238;2022-12-19T11:08:14;101842.00;;;1.04;82.78
32330;BME280;18807;52.434;13.238;2022-12-19T11:15:51;101826.25;;;1.17;84.07
32330;BME280;18807;52.434;13.238;2022-12-19T11:23:49;101811.91;;;1.25;88.20
32330;BME280;18807;52.434;13.238;2022-12-19T11:31:46;101811.91;;;1.25;93.79
32330;BME280;18807;52.434;13.238;2022-12-19T11:39:44;101814.75;;;1.28;100.00
32330;BME280;18807;52.434;13.238;2022-12-19T11:47:30;101795.91;;;1.22;100.00
32330;BME280;18807;52.434;13.238;2022-12-19T11:55:15;101777.69;;;1.25;100.00
32330;BME280;18807;52.434;13.238;2022-12-19T12:03:31;101772.13;;;1.21;100.00
32330;BME280;18807;52.434;13.238;2022-12-19T12:11:22;101763.41;;;1.22;100.00
32330;BME280;18807;52.434;13.238;2022-12-19T12:19:28;101749.69;;;1.26;100.00
32330;BME280;18807;52.434;13.238;2022-12-19T12:27:38;101749.94;;;1.17;100.00
32330;BME280;18807;52.434;13.238;2022-12-19T12:35:46;101748.03;;;1.15;100.00
32330;BME280;18807;52.434;13.238;2022-12-19T12:43:53;101743.09;;;1.19;100.00
32330;BME280;18807;52.434;13.238;2022-12-19T12:51:34;101748.03;;;1.15;100.00
32330;BME280;18807;52.434;13.238;2022-12-19T12:59:20;101736.78;;;1.17;100.00
32330;BME280;18807;52.434;13.238;2022-12-19T13:07:14;101723.94;;;1.22;100.00
32330;BME280;18807;52.434;13.238;2022-12-19T13:14:51;101705.06;;;1.27;100.00
32330;BME280;18807;52.434;13.238;2022-12-19T13:22:40;101702.84;;;1.33;100.00
32330;BME280;18807;52.434;13.238;2022-12-19T13:30:17;101702.84;;;1.33;100.00
32330;BME280;18807;52.434;13.238;2022-12-19T13:37:59;101701.19;;;1.35;100.00
32330;BME280;18807;52.434;13.238;2022-12-19T13:45:56;101705.78;;;1.38;100.00
32330;BME280;18807;52.434;13.238;2022-12-19T13:53:31;101688.25;;;1.38;100.00
32330;BME280;18807;52.434;13.238;2022-12-19T14:01:12;101684.41;;;1.46;100.00
32330;BME280;18807;52.434;13.238;2022-12-19T14:08:58;101678.63;;;1.52;100.00
32330;BME280;18807;52.434;13.238;2022-12-19T14:16:55;101671.94;;;1.57;100.00
32330;BME280;18807;52.434;13.238;2022-12-19T14:24:40;101667.97;;;1.63;100.00
32330;BME280;18807;52.434;13.238;2022-12-19T14:32:15;101658.25;;;1.62;100.00
32330;BME280;18807;52.434;13.238;2022-12-19T14:40:20;101664.31;;;1.74;100.00
32330;BME280;18807;52.434;13.238;2022-12-19T14:47:55;101662.91;;;1.79;100.00
32330;BME280;18807;52.434;13.238;2022-12-19T14:56:02;101656.50;;;1.76;100.00
32330;BME280;18807;52.434;13.238;2022-12-19T15:03:59;101648.75;;;1.92;100.00
32330;BME280;18807;52.434;13.238;2022-12-19T15:11:56;101641.78;;;1.92;100.00
32330;BME280;18807;52.434;13.238;2022-12-19T15:20:12;101634.47;;;2.01;100.00
32330;BME280;18807;52.434;13.238;2022-12-19T15:27:48;101643.44;;;2.05;100.00
32330;BME280;18807;52.434;13.238;2022-12-19T15:35:22;101639.28;;;2.08;100.00
32330;BME280;18807;52.434;13.238;2022-12-19T15:42:57;101632.50;;;2.12;100.00
32330;BME280;18807;52.434;13.238;2022-12-19T15:50:31;101638.25;;;2.20;100.00
32330;BME280;18807;52.434;13.238;2022-12-19T15:58:11;101626.88;;;2.21;100.00
32330;BME280;18807;52.434;13.238;2022-12-19T16:05:46;101619.34;;;2.27;100.00
32330;BME280;18807;52.434;13.238;2022-12-19T16:13:23;101615.97;;;2.29;100.00
32330;BME280;18807;52.434;13.238;2022-12-19T16:20:58;101621.34;;;2.31;100.00
32330;BME280;18807;52.434;13.238;2022-12-19T16:28:33;101618.25;;;2.38;100.00
32330;BME280;18807;52.434;13.238;2022-12-19T16:36:08;101600.91;;;2.41;100.00
32330;BME280;18807;52.434;13.238;2022-12-19T16:43:45;101601.19;;;2.46;100.00
32330;BME280;18807;52.434;13.238;2022-12-19T16:51:20;101605.72;;;2.63;100.00
32330;BME280;18807;52.434;13.238;2022-12-19T16:59:00;101594.56;;;2.67;100.00
32330;BME280;18807;52.434;13.238;2022-12-19T17:06:34;101585.91;;;2.69;100.00
32330;BME280;18807;52.434;13.238;2022-12-19T17:14:14;101585.63;;;2.79;100.00
32330;BME280;18807;52.434;13.238;2022-12-19T17:21:49;101587.66;;;2.83;100.00
32330;BME280;18807;52.434;13.238;2022-12-19T17:29:24;101580.72;;;2.85;100.00
32330;BME280;18807;52.434;13.238;2022-12-19T17:36:59;101583.97;;;2.96;100.00
32330;BME280;18807;52.434;13.238;2022-12-19T17:44:34;101580.34;;;2.94;100.00
32330;BME280;18807;52.434;13.238;2022-12-19T17:52:11;101570.03;;;2.98;100.00
32330;BME280;18807;52.434;13.238;2022-12-19T17:59:47;101583.94;;;3.10;100.00
32330;BME280;18807;52.434;13.238;2022-12-19T18:07:21;101579.69;;;3.12;100.00
32330;BME280;18807;52.434;13.238;2022-12-19T18:14:57;101587.88;;;3.17;100.00
32330;BME280;18807;52.434;13.238;2022-12-19T18:22:31;101573.13;;;3.20;100.00
32330;BME280;18807;52.434;13.238;2022-12-19T18:30:08;101577.75;;;3.24;100.00
32330;BME280;18807;52.434;13.238;2022-12-19T18:37:44;101576.34;;;3.31;100.00
32330;BME280;18807;52.434;13.238;2022-12-19T18:45:21;101572.50;;;3.40;100.00
32330;BME280;18807;52.434;13.238;2022-12-19T18:52:56;101566.47;;;3.43;100.00
32330;BME280;18807;52.434;13.238;2022-12-19T19:00:31;101561.25;;;3.59;100.00
32330;BME280;18807;52.434;13.238;2022-12-19T19:08:13;101540.75;;;3.55;100.00
32330;BME280;18807;52.434;13.238;2022-12-19T19:15:51;101540.50;;;3.50;100.00
32330;BME280;18807;52.434;13.238;2022-12-19T19:23:29;101541.59;;;3.54;100.00
32330;BME280;18807;52.434;13.238;2022-12-19T19:31:10;101527.78;;;3.59;100.00
32330;BME280;18807;52.434;13.238;2022-12-19T19:38:48;101534.84;;;3.59;100.00
32330;BME280;18807;52.434;13.238;2022-12-19T19:46:25;101530.34;;;3.58;100.00
32330;BME280;18807;52.434;13.238;2022-12-19T19:53:59;101536.38;;;3.55;100.00
32330;BME280;18807;52.434;13.238;2022-12-19T20:01:34;101530.19;;;3.55;100.00
32330;BME280;18807;52.434;13.238;2022-12-19T20:09:08;101525.75;;;3.54;100.00
32330;BME280;18807;52.434;13.238;2022-12-19T20:16:44;101523.69;;;3.48;100.00
32330;BME280;18807;52.434;13.238;2022-12-19T20:24:18;101505.53;;;3.54;100.00
32330;BME280;18807;52.434;13.238;2022-12-19T20:31:53;101510.66;;;3.51;100.00
32330;BME280;18807;52.434;13.238;2022-12-19T20:39:27;101500.47;;;3.43;100.00
32330;BME280;18807;52.434;13.238;2022-12-19T20:47:04;101503.94;;;3.42;100.00
32330;BME280;18807;52.434;13.238;2022-12-19T20:54:38;101515.34;;;3.41;100.00
32330;BME280;18807;52.434;13.238;2022-12-19T21:02:14;101512.19;;;3.32;100.00
32330;BME280;18807;52.434;13.238;2022-12-19T21:09:48;101524.78;;;3.21;100.00
32330;BME280;18807;52.434;13.238;2022-12-19T21:17:26;101508.03;;;3.21;100.00
32330;BME280;18807;52.434;13.238;2022-12-19T21:25:00;101534.41;;;3.21;100.00
32330;BME280;18807;52.434;13.238;2022-12-19T21:32:36;101531.25;;;3.12;100.00
32330;BME280;18807;52.434;13.238;2022-12-19T21:40:10;101504.78;;;3.10;100.00
32330;BME280;18807;52.434;13.238;2022-12-19T21:47:46;101524.84;;;3.07;100.00
32330;BME280;18807;52.434;13.238;2022-12-19T21:55:20;101509.78;;;3.06;100.00
32330;BME280;18807;52.434;13.238;2022-12-19T22:02:55;101515.41;;;3.12;100.00
32330;BME280;18807;52.434;13.238;2022-12-19T22:10:47;101495.31;;;3.14;100.00
32330;BME280;18807;52.434;13.238;2022-12-19T22:18:22;101511.41;;;3.18;100.00
32330;BME280;18807;52.434;13.238;2022-12-19T22:26:00;101518.22;;;3.15;100.00
32330;BME280;18807;52.434;13.238;2022-12-19T22:33:36;101495.56;;;3.18;100.00
32330;BME280;18807;52.434;13.238;2022-12-19T22:41:10;101492.84;;;3.17;100.00
32330;BME280;18807;52.434;13.238;2022-12-19T22:48:47;101493.03;;;3.20;100.00
32330;BME280;18807;52.434;13.238;2022-12-19T22:56:23;101473.00;;;3.23;100.00
32330;BME280;18807;52.434;13.238;2022-12-19T23:04:00;101479.91;;;3.21;100.00
32330;BME280;18807;52.434;13.238;2022-12-19T23:11:36;101465.97;;;3.24;100.00
32330;BME280;18807;52.434;13.238;2022-12-19T23:19:13;101474.47;;;3.18;100.00
32330;BME280;18807;52.434;13.238;2022-12-19T23:26:47;101481.72;;;3.22;100.00
32330;BME280;18807;52.434;13.238;2022-12-19T23:34:23;101471.16;;;3.22;100.00
32330;BME280;18807;52.434;13.238;2022-12-19T23:41:56;101465.88;;;3.22;100.00
32330;BME280;18807;52.434;13.238;2022-12-19T23:49:33;101472.25;;;3.26;100.00
32330;BME280;18807;52.434;13.238;2022-12-19T23:57:07;101451.47;;;3.32;100.00
